Bat Cave, NC

5:31 AM EST on February 09, 2016 (GMT -0500)
Asheville Regional | | Change Station
CLOSE
Current Station
Airport
Location: Asheville,
Elevation: 2169 ft
Nearby Weather Stations

Elev 2169 ft 35.43 °N, 82.54 °W | Updated 37 minutes ago

Overcast
Overcast
26 °F
Feels Like 14 °F
N
15
Wind Variable Wind from NNW

Today
High -- | Low -- °F
--% Chance of Precip.
Yesterday
High -- | Low -- °F
Precip. -- in
Pressure 29.67 in
Visibility 9.0 miles
Clouds Overcast 9000 ft
Windchill 14 °F
Dew Point 19 °F
Humidity 75%
Rainfall 0.00 in
Snow Depth Not available.
7:23 AM 6:05 PM
New Moon, 1% visible
METAR KAVL 090954Z AUTO 34013KT 9SM -SN OVC090 M03/M07 A2965 RMK AO2 SLP045 P0000 T10331072
Pressure 29.67 in
Visibility 9.0 miles
Clouds Overcast 9000 ft
Windchill 14 °F
Dew Point 19 °F
Humidity 75%
Rainfall 0.00 in
Snow Depth Not available.
7:23 AM 6:05 PM
New Moon, 1% visible
METAR KAVL 090954Z AUTO 34013KT 9SM -SN OVC090 M03/M07 A2965 RMK AO2 SLP045 P0000 T10331072

10-Day Weather Forecast

Almanac

Astronomy

Feb. 09, 2016 Rise Set
Actual Time
Civil Twilight
Nautical Twilight
Astronomical Twilight
Moon
Length of Visible Light
Length of Day
Tomorrow will be .
, % of the Moon is Illuminated

Today's Extremes

State Highs State Lows

Community

WunderPhotos

Upload Photos

1,891,565 photos uploaded!

WunderBlog® & News

Nearby

Air Quality

  Air Quality AQ Index Pollutant
Not available.

Snow Depth

Station Depth Elevation

Earthquake Activity

City Distance Mag. Time & Date
Minimum magnitude displayed is 2.5.

Coastal Water Temperatures

Place Temperature

Stations

Nearby Weather Stations

Station Location Temp. Windchill Dew Point Humidity Wind Precip. Elev Updated Type
                   

Watches & Warnings

There are currently no watches in effect.